Terminal Aerodrome Forecast
Issued by NWS Sterling, VA

Current Version | Previous Version | Text Only | Print | Product List | Glossary Off
Versions: 1 2 3 4 5 6 7 8 9 10 11 12 13 14 15 16 17 18 19 20 21 22

000
FTUS41 KLWX 261137
TAFIAD
TAF
KIAD 261137Z 2612/2718 31006KT P6SM SCT070 OVC100
     FM261500 34007KT P6SM BKN100
     FM270100 VRB03KT P6SM BKN090
     FM271000 33007KT P6SM BKN090
     FM271200 33011G18KT P6SM BKN100=

USA.gov is the U.S. government's official web portal to all federal, state and local government web resources and services.